createdAt,value
2023-09-19T00:00:43.187Z,2.28
2023-09-19T00:03:10.386Z,2.58
2023-09-19T00:05:39.744Z,2.22
2023-09-19T00:08:06.856Z,2.10
2023-09-19T00:10:36.291Z,2.45
2023-09-19T00:13:08.624Z,2.08
2023-09-19T00:15:43.852Z,2.13
2023-09-19T00:18:10.741Z,2.40
2023-09-19T00:20:39.399Z,2.15
2023-09-19T00:23:07.141Z,2.00
2023-09-19T00:25:34.025Z,2.03
2023-09-19T00:28:00.913Z,2.00
2023-09-19T00:30:28.133Z,2.10
2023-09-19T00:32:55.986Z,1.90
2023-09-19T00:35:26.754Z,1.58
2023-09-19T00:37:54.115Z,1.48
2023-09-19T00:40:22.667Z,1.80
2023-09-19T00:42:51.639Z,1.73
2023-09-19T00:45:19.593Z,2.10
2023-09-19T00:47:52.749Z,1.83
2023-09-19T00:50:22.409Z,2.40
2023-09-19T00:52:58.603Z,2.10
2023-09-19T00:55:26.647Z,2.33
2023-09-19T00:57:54.095Z,2.30
2023-09-19T01:00:21.704Z,1.77
2023-09-19T01:02:49.590Z,2.10
2023-09-19T01:05:17.240Z,2.95
2023-09-19T01:07:45.847Z,2.60
2023-09-19T01:10:15.903Z,2.85
2023-09-19T01:13:25.649Z,1.80
2023-09-19T01:16:05.534Z,1.85
2023-09-19T01:18:50.722Z,2.65
2023-09-19T01:21:57.010Z,2.13
2023-09-19T01:24:42.445Z,1.85
2023-09-19T01:27:21.349Z,2.08
2023-09-19T01:29:50.812Z,2.00
2023-09-19T01:32:23.933Z,1.70
2023-09-19T01:34:54.192Z,1.73
2023-09-19T01:37:26.654Z,1.48
2023-09-19T01:39:58.156Z,2.10
2023-09-19T01:42:43.382Z,1.92
2023-09-19T01:45:24.895Z,2.30
2023-09-19T01:47:57.138Z,2.15
2023-09-19T01:50:43.435Z,2.10
2023-09-19T01:53:22.113Z,1.98
2023-09-19T01:55:51.016Z,1.95
2023-09-19T01:58:26.617Z,2.70
2023-09-19T02:00:56.397Z,2.03
2023-09-19T02:03:24.204Z,2.13
2023-09-19T02:05:55.352Z,2.13
2023-09-19T02:08:26.520Z,2.28
2023-09-19T02:10:54.129Z,1.60
2023-09-19T02:13:23.700Z,1.88
2023-09-19T02:15:50.585Z,1.98
2023-09-19T02:18:18.224Z,1.38
2023-09-19T02:20:45.256Z,1.90
2023-09-19T02:23:12.337Z,1.52
2023-09-19T02:25:40.423Z,2.15
2023-09-19T02:28:07.964Z,1.90
2023-09-19T02:30:34.698Z,1.90
2023-09-19T02:33:03.148Z,1.60
2023-09-19T02:35:34.156Z,1.85
2023-09-19T02:40:27.818Z,2.10
2023-09-19T02:42:55.825Z,1.80
2023-09-19T02:45:23.864Z,1.63
2023-09-19T02:47:50.923Z,1.85
2023-09-19T02:50:18.868Z,1.85
2023-09-19T02:52:49.951Z,1.70
2023-09-19T02:55:19.230Z,1.90
2023-09-19T02:57:58.404Z,1.77
2023-09-19T03:00:25.632Z,1.80
2023-09-19T03:02:57.493Z,2.22
2023-09-19T03:05:24.998Z,1.98
2023-09-19T03:07:52.116Z,1.73
2023-09-19T03:10:20.072Z,2.25
2023-09-19T03:12:47.902Z,1.70
2023-09-19T03:15:16.568Z,2.03
2023-09-19T03:17:47.419Z,1.55
2023-09-19T03:22:42.105Z,2.10
2023-09-19T03:25:09.305Z,1.98
2023-09-19T03:27:39.824Z,1.88
2023-09-19T03:30:09.822Z,2.25
2023-09-19T03:32:37.483Z,2.15
2023-09-19T03:35:07.933Z,1.90
2023-09-19T03:37:35.158Z,2.10
2023-09-19T03:40:06.204Z,1.73
2023-09-19T03:42:33.201Z,1.90
2023-09-19T03:45:02.081Z,1.90
2023-09-19T03:47:28.842Z,1.73
2023-09-19T03:49:55.604Z,1.83
2023-09-19T03:52:22.303Z,2.53
2023-09-19T03:54:49.046Z,1.90
2023-09-19T03:57:18.313Z,2.00
2023-09-19T03:59:45.168Z,1.80
2023-09-19T04:02:23.079Z,2.15
2023-09-19T04:04:50.616Z,3.67
2023-09-19T04:07:18.107Z,2.08
2023-09-19T04:09:44.940Z,2.40
2023-09-19T04:12:11.727Z,2.40
2023-09-19T04:14:39.682Z,2.50
2023-09-19T04:17:08.697Z,2.55
2023-09-19T04:19:37.056Z,2.45
2023-09-19T04:22:05.196Z,2.28
2023-09-19T04:24:33.495Z,2.03
2023-09-19T04:27:03.430Z,2.03
2023-09-19T04:29:30.515Z,1.92
2023-09-19T04:32:00.410Z,2.20
2023-09-19T04:34:27.087Z,2.33
2023-09-19T04:36:54.196Z,2.38
2023-09-19T04:39:22.254Z,2.45
2023-09-19T04:41:49.251Z,1.80
2023-09-19T04:44:17.044Z,1.95
2023-09-19T04:46:44.037Z,1.98
2023-09-19T04:49:10.886Z,2.28
2023-09-19T04:51:37.854Z,2.20
2023-09-19T04:54:05.235Z,2.75
2023-09-19T04:56:33.288Z,2.42
2023-09-19T04:59:01.239Z,2.30
2023-09-19T05:01:28.377Z,1.83
2023-09-19T05:03:55.292Z,2.22
2023-09-19T05:06:22.748Z,2.03
2023-09-19T05:08:53.844Z,1.75
2023-09-19T05:11:23.197Z,2.40
2023-09-19T05:13:54.321Z,2.55
2023-09-19T05:16:21.396Z,1.77
2023-09-19T05:18:48.233Z,1.98
2023-09-19T05:21:14.966Z,2.20
2023-09-19T05:23:42.566Z,1.90
2023-09-19T05:26:09.771Z,2.20
2023-09-19T05:28:37.085Z,1.85
2023-09-19T05:31:04.035Z,2.08
2023-09-19T05:33:33.223Z,2.33
2023-09-19T05:36:00.325Z,2.72
2023-09-19T05:38:27.809Z,2.17
2023-09-19T05:40:55.342Z,2.53
2023-09-19T05:43:22.307Z,2.15
2023-09-19T05:45:49.400Z,2.03
2023-09-19T05:48:17.097Z,2.15
2023-09-19T05:50:46.050Z,2.35
2023-09-19T05:53:15.830Z,2.35
2023-09-19T05:55:43.164Z,2.10
2023-09-19T05:58:11.362Z,2.15
2023-09-19T06:00:39.682Z,1.80
2023-09-19T06:03:06.940Z,2.33
2023-09-19T06:05:34.063Z,2.05
2023-09-19T06:08:02.216Z,2.13
2023-09-19T06:10:29.537Z,2.22
2023-09-19T06:12:56.613Z,2.10
2023-09-19T06:15:25.835Z,2.38
2023-09-19T06:17:56.858Z,1.90
2023-09-19T06:20:25.178Z,2.00
2023-09-19T06:22:52.838Z,2.15
2023-09-19T06:25:21.170Z,2.10
2023-09-19T06:27:49.425Z,1.95
2023-09-19T06:30:16.741Z,1.90
2023-09-19T06:32:46.302Z,2.42
2023-09-19T06:35:17.328Z,1.77
2023-09-19T06:37:44.925Z,1.92
2023-09-19T06:40:15.348Z,2.50
2023-09-19T06:42:46.743Z,2.20
2023-09-19T06:45:18.863Z,1.90
2023-09-19T06:47:47.307Z,1.83
2023-09-19T06:50:15.691Z,1.90
2023-09-19T06:52:42.913Z,3.03
2023-09-19T06:55:17.380Z,2.10
2023-09-19T06:57:47.347Z,2.20
2023-09-19T07:00:23.362Z,1.88
2023-09-19T07:03:12.803Z,2.20
2023-09-19T07:05:41.616Z,2.20
2023-09-19T07:08:11.234Z,1.95
2023-09-19T07:10:38.048Z,1.70
2023-09-19T07:13:11.477Z,1.90
2023-09-19T07:15:42.971Z,2.55
2023-09-19T07:18:12.642Z,2.42
2023-09-19T07:20:39.712Z,2.05
2023-09-19T07:23:08.603Z,1.77
2023-09-19T07:25:37.210Z,2.10
2023-09-19T07:28:04.314Z,2.03
2023-09-19T07:30:31.622Z,1.98
2023-09-19T07:32:58.819Z,1.83
2023-09-19T07:35:26.458Z,1.83
2023-09-19T07:37:53.456Z,2.00
2023-09-19T07:40:21.939Z,1.80
2023-09-19T07:42:49.260Z,2.63
2023-09-19T07:45:18.250Z,2.60
2023-09-19T07:47:46.890Z,2.28
2023-09-19T07:50:15.126Z,2.45
2023-09-19T07:52:42.021Z,2.67
2023-09-19T07:55:10.185Z,2.35
2023-09-19T07:57:37.342Z,2.08
2023-09-19T08:00:08.486Z,2.42
2023-09-19T08:05:07.533Z,1.90
2023-09-19T08:07:34.533Z,2.08
2023-09-19T08:10:01.251Z,2.03
2023-09-19T08:12:28.058Z,1.90
2023-09-19T08:14:56.312Z,1.90
2023-09-19T08:17:26.565Z,2.30
2023-09-19T08:19:54.185Z,1.92
2023-09-19T08:22:22.532Z,1.77
2023-09-19T08:24:49.280Z,1.90
2023-09-19T08:27:16.613Z,1.80
2023-09-19T08:29:43.639Z,1.63
2023-09-19T08:32:10.655Z,2.00
2023-09-19T08:34:39.984Z,1.70
2023-09-19T08:37:06.888Z,1.92
2023-09-19T08:39:34.654Z,1.63
2023-09-19T08:42:02.417Z,1.80
2023-09-19T08:44:32.920Z,2.30
2023-09-19T08:47:08.861Z,1.60
2023-09-19T08:50:15.497Z,2.35
2023-09-19T08:52:49.348Z,2.10
2023-09-19T08:55:23.239Z,1.92
2023-09-19T08:58:00.048Z,1.67
2023-09-19T09:00:29.463Z,2.10
2023-09-19T09:02:57.696Z,1.70
2023-09-19T09:05:25.541Z,1.80
2023-09-19T09:07:53.388Z,1.73
2023-09-19T09:10:23.650Z,1.65
2023-09-19T09:12:56.331Z,1.92
2023-09-19T09:15:24.701Z,1.63
2023-09-19T09:17:56.128Z,1.75
2023-09-19T09:20:22.970Z,1.83
2023-09-19T09:22:56.941Z,1.40
2023-09-19T09:25:27.003Z,1.40
2023-09-19T09:28:02.508Z,2.00
2023-09-19T09:30:37.969Z,1.40
2023-09-19T09:33:16.855Z,1.08
2023-09-19T09:35:53.566Z,1.40
2023-09-19T09:38:33.211Z,1.67
2023-09-19T09:41:01.704Z,1.50
2023-09-19T09:43:38.953Z,1.40
2023-09-19T09:46:24.830Z,1.48
2023-09-19T09:49:17.228Z,1.70
2023-09-19T09:52:00.962Z,1.85
2023-09-19T09:54:35.365Z,2.00
2023-09-19T09:57:14.688Z,1.50
2023-09-19T09:59:48.787Z,1.60
2023-09-19T10:02:21.840Z,1.58
2023-09-19T10:05:11.367Z,1.60
2023-09-19T10:07:44.648Z,1.60
2023-09-19T10:10:17.874Z,1.52
2023-09-19T10:12:47.179Z,1.80
2023-09-19T10:15:17.346Z,1.75
2023-09-19T10:17:47.110Z,2.30
2023-09-19T10:20:36.176Z,1.52
2023-09-19T10:23:13.770Z,2.17
2023-09-19T10:25:46.904Z,1.90
2023-09-19T10:28:15.677Z,2.30
2023-09-19T10:30:48.277Z,1.40
2023-09-19T10:33:16.554Z,1.80
2023-09-19T10:35:46.234Z,1.85
2023-09-19T10:38:18.243Z,1.20
2023-09-19T10:40:51.449Z,1.58
2023-09-19T10:43:19.781Z,1.65
2023-09-19T10:45:50.983Z,1.10
2023-09-19T10:48:21.581Z,1.20
2023-09-19T10:51:25.431Z,1.23
2023-09-19T10:53:56.690Z,1.42
2023-09-19T10:56:39.001Z,1.30
2023-09-19T11:01:49.079Z,1.30
2023-09-19T11:04:28.776Z,0.90
2023-09-19T11:07:12.541Z,1.08
2023-09-19T11:09:58.857Z,1.00
2023-09-19T11:12:37.167Z,0.73
2023-09-19T11:15:09.233Z,1.35
2023-09-19T11:17:53.426Z,1.10
2023-09-19T11:20:25.745Z,1.50
2023-09-19T11:22:58.668Z,1.27
2023-09-19T11:25:32.191Z,1.27
2023-09-19T11:28:10.012Z,1.85
2023-09-19T11:30:38.966Z,1.30
2023-09-19T11:33:24.643Z,1.23
2023-09-19T11:36:31.511Z,1.45
2023-09-19T11:39:09.405Z,1.45
2023-09-19T11:41:40.749Z,1.30
2023-09-19T11:44:08.036Z,1.55
2023-09-19T11:46:53.960Z,1.20
2023-09-19T11:49:35.687Z,1.17
2023-09-19T11:52:06.407Z,1.30
2023-09-19T11:54:33.719Z,1.48
2023-09-19T11:57:01.647Z,1.35
2023-09-19T11:59:30.476Z,1.20
2023-09-19T12:01:59.369Z,1.42
2023-09-19T12:04:44.795Z,1.33
2023-09-19T12:07:18.206Z,1.23
2023-09-19T12:09:50.779Z,0.98
2023-09-19T12:12:21.835Z,1.25
2023-09-19T12:14:51.923Z,1.48
2023-09-19T12:17:25.724Z,1.33
2023-09-19T12:19:54.322Z,1.10
2023-09-19T12:22:24.404Z,1.10
2023-09-19T12:24:52.207Z,1.20
2023-09-19T12:27:19.143Z,1.30
2023-09-19T12:29:52.099Z,1.25
2023-09-19T12:32:21.084Z,1.30
2023-09-19T12:34:55.988Z,1.20
2023-09-19T12:37:24.066Z,1.27
2023-09-19T12:39:54.712Z,1.08
2023-09-19T12:44:57.670Z,1.27
2023-09-19T12:47:25.970Z,1.13
2023-09-19T12:50:20.962Z,0.73
2023-09-19T12:52:50.637Z,0.85
2023-09-19T12:55:27.768Z,1.40
2023-09-19T12:58:13.859Z,0.90
2023-09-19T13:00:48.634Z,1.80
2023-09-19T13:03:29.808Z,1.10
2023-09-19T13:06:02.038Z,1.10
2023-09-19T13:08:32.224Z,0.90
2023-09-19T13:11:22.070Z,0.82
2023-09-19T13:13:55.090Z,0.85
2023-09-19T13:16:26.650Z,1.08
2023-09-19T13:18:58.783Z,1.10
2023-09-19T13:21:34.148Z,1.10
2023-09-19T13:24:24.393Z,1.30
2023-09-19T13:26:51.156Z,1.00
2023-09-19T13:29:20.158Z,0.93
2023-09-19T13:31:51.146Z,1.73
2023-09-19T13:34:18.727Z,0.88
2023-09-19T13:36:46.196Z,1.08
2023-09-19T13:39:17.150Z,1.13
2023-09-19T13:41:48.533Z,1.00
2023-09-19T13:44:15.780Z,0.90
2023-09-19T13:46:47.012Z,0.90
2023-09-19T13:49:14.315Z,1.00
2023-09-19T13:51:44.882Z,0.98
2023-09-19T13:54:13.311Z,1.00
2023-09-19T13:56:40.394Z,0.90
2023-09-19T13:59:07.960Z,1.20
2023-09-19T14:01:35.006Z,0.95
2023-09-19T14:04:01.928Z,1.00
2023-09-19T14:06:28.553Z,0.82
2023-09-19T14:08:55.221Z,1.00
2023-09-19T14:11:22.022Z,1.02
2023-09-19T14:13:50.223Z,1.35
2023-09-19T14:16:19.263Z,1.13
2023-09-19T14:18:47.723Z,1.38
2023-09-19T14:21:15.923Z,1.10
2023-09-19T14:23:44.631Z,1.10
2023-09-19T14:26:11.634Z,1.45
2023-09-19T14:28:40.159Z,1.58
2023-09-19T14:31:11.308Z,1.20
2023-09-19T14:33:39.612Z,1.13
2023-09-19T14:36:08.157Z,1.27
2023-09-19T14:38:35.586Z,1.40
2023-09-19T14:41:03.679Z,1.13
2023-09-19T14:43:31.327Z,1.08
2023-09-19T14:46:01.123Z,0.85
2023-09-19T14:48:27.909Z,1.15
2023-09-19T14:50:56.371Z,0.98
2023-09-19T14:53:23.308Z,1.17
2023-09-19T14:55:53.218Z,0.93
2023-09-19T14:58:19.925Z,1.67
2023-09-19T15:00:46.961Z,1.40
2023-09-19T15:03:14.979Z,1.33
2023-09-19T15:05:41.999Z,1.10
2023-09-19T15:08:08.741Z,1.23
2023-09-19T15:10:35.890Z,1.00
2023-09-19T15:13:02.712Z,1.50
2023-09-19T15:15:29.462Z,1.15
2023-09-19T15:17:56.299Z,1.23
2023-09-19T15:20:23.010Z,1.42
2023-09-19T15:22:51.763Z,1.42
2023-09-19T15:25:18.484Z,1.42
2023-09-19T15:27:46.369Z,1.70
2023-09-19T15:30:16.534Z,1.20
2023-09-19T15:32:43.601Z,1.20
2023-09-19T15:35:14.025Z,1.15
2023-09-19T15:37:41.955Z,1.10
2023-09-19T15:40:12.150Z,1.00
2023-09-19T15:42:38.862Z,1.15
2023-09-19T15:45:06.249Z,1.20
2023-09-19T15:47:32.973Z,1.50
2023-09-19T15:49:59.758Z,1.10
2023-09-19T15:52:27.446Z,0.93
2023-09-19T15:54:54.116Z,1.50
2023-09-19T15:57:20.971Z,1.30
2023-09-19T15:59:48.227Z,1.23
2023-09-19T16:02:14.982Z,1.15
2023-09-19T16:04:42.168Z,1.20
2023-09-19T16:07:08.977Z,1.00
2023-09-19T16:09:36.580Z,1.10
2023-09-19T16:12:04.218Z,1.00
2023-09-19T16:14:32.255Z,1.05
2023-09-19T16:17:01.475Z,0.98
2023-09-19T16:19:28.277Z,1.33
2023-09-19T16:21:55.031Z,1.00
2023-09-19T16:24:21.854Z,0.90
2023-09-19T16:26:50.354Z,0.95
2023-09-19T16:29:17.052Z,0.80
2023-09-19T16:31:43.771Z,0.80
2023-09-19T16:34:10.814Z,0.98
2023-09-19T16:36:37.862Z,1.02
2023-09-19T16:39:05.934Z,1.00
2023-09-19T16:41:32.587Z,0.80
2023-09-19T16:43:59.443Z,1.00
2023-09-19T16:46:26.341Z,0.90
2023-09-19T16:49:02.855Z,0.90
2023-09-19T16:51:31.381Z,0.95
2023-09-19T16:53:58.353Z,1.45
2023-09-19T16:56:25.197Z,1.35
2023-09-19T16:58:53.010Z,1.48
2023-09-19T17:01:21.740Z,1.10
2023-09-19T17:03:49.698Z,1.20
2023-09-19T17:06:19.067Z,1.25
2023-09-19T17:08:46.972Z,1.50
2023-09-19T17:11:17.339Z,0.98
2023-09-19T17:13:48.089Z,1.13
2023-09-19T17:16:22.592Z,1.30
2023-09-19T17:18:54.731Z,1.60
2023-09-19T17:21:22.221Z,1.20
2023-09-19T17:23:49.774Z,1.05
2023-09-19T17:26:21.925Z,1.17
2023-09-19T17:28:48.963Z,1.20
2023-09-19T17:31:23.169Z,1.17
2023-09-19T17:33:51.981Z,1.48
2023-09-19T17:36:21.907Z,1.40
2023-09-19T17:38:58.154Z,1.38
2023-09-19T17:41:25.622Z,1.50
2023-09-19T17:43:54.411Z,1.42
2023-09-19T17:46:21.763Z,1.67
2023-09-19T17:48:50.323Z,1.40
2023-09-19T17:51:18.072Z,1.80
2023-09-19T17:53:47.361Z,1.60
2023-09-19T17:56:16.680Z,1.40
2023-09-19T17:58:55.597Z,3.28
2023-09-19T18:01:30.451Z,1.70
2023-09-19T18:03:58.874Z,1.58
2023-09-19T18:06:27.634Z,1.50
2023-09-19T18:08:55.871Z,1.73
2023-09-19T18:11:26.495Z,1.70
2023-09-19T18:13:55.669Z,1.75
2023-09-19T18:16:25.940Z,6.80
2023-09-19T18:18:53.948Z,2.45
2023-09-19T18:21:21.367Z,3.10
2023-09-19T18:24:05.085Z,2.78
2023-09-19T18:26:32.192Z,3.17
2023-09-19T18:28:59.567Z,3.10
2023-09-19T18:31:26.998Z,2.50
2023-09-19T18:33:54.725Z,3.30
2023-09-19T18:36:21.854Z,2.05
2023-09-19T18:38:49.184Z,2.72
2023-09-19T18:41:16.525Z,2.63
2023-09-19T18:43:44.060Z,2.53
2023-09-19T18:46:12.736Z,3.95
2023-09-19T18:48:46.249Z,5.47
2023-09-19T18:51:16.046Z,2.80
2023-09-19T18:53:47.253Z,3.20
2023-09-19T18:56:20.679Z,2.70
2023-09-19T18:58:51.016Z,3.38
2023-09-19T19:01:18.436Z,3.53
2023-09-19T19:03:46.910Z,2.95
2023-09-19T19:06:18.943Z,2.83
2023-09-19T19:08:47.232Z,3.63
2023-09-19T19:11:17.989Z,3.20
2023-09-19T19:13:48.173Z,2.40
2023-09-19T19:16:20.128Z,2.70
2023-09-19T19:18:48.864Z,2.78
2023-09-19T19:21:17.273Z,2.53
2023-09-19T19:23:44.195Z,2.65
2023-09-19T19:26:12.407Z,3.08
2023-09-19T19:28:42.135Z,2.85
2023-09-19T19:31:10.710Z,2.42
2023-09-19T19:33:39.361Z,2.50
2023-09-19T19:36:08.420Z,2.28
2023-09-19T19:38:38.466Z,2.65
2023-09-19T19:41:06.218Z,2.20
2023-09-19T19:43:33.518Z,2.30
2023-09-19T19:46:02.062Z,2.08
2023-09-19T19:48:30.332Z,2.08
2023-09-19T19:50:57.598Z,2.03
2023-09-19T19:53:27.634Z,2.15
2023-09-19T19:55:59.944Z,1.73
2023-09-19T19:58:27.002Z,2.00
2023-09-19T20:00:57.561Z,1.70
2023-09-19T20:03:27.861Z,2.10
2023-09-19T20:05:54.914Z,1.58
2023-09-19T20:08:21.620Z,1.80
2023-09-19T20:10:48.478Z,2.10
2023-09-19T20:13:16.281Z,2.05
2023-09-19T20:15:43.176Z,2.00
2023-09-19T20:18:14.133Z,3.20
2023-09-19T20:20:41.230Z,2.72
2023-09-19T20:23:08.420Z,3.38
2023-09-19T20:25:36.191Z,3.42
2023-09-19T20:28:04.741Z,3.95
2023-09-19T20:30:32.779Z,5.03
2023-09-19T20:33:03.100Z,8.93
2023-09-19T20:35:30.296Z,5.38
2023-09-19T20:38:01.992Z,3.30
2023-09-19T20:40:28.961Z,3.15
2023-09-19T20:42:55.908Z,2.92
2023-09-19T20:45:22.859Z,3.28
2023-09-19T20:47:52.581Z,2.42
2023-09-19T20:50:25.648Z,2.20
2023-09-19T20:52:52.472Z,2.08
2023-09-19T20:55:19.211Z,2.10
2023-09-19T20:57:47.354Z,2.25
2023-09-19T21:00:14.754Z,1.85
2023-09-19T21:02:41.929Z,1.58
2023-09-19T21:05:09.219Z,1.70
2023-09-19T21:07:36.563Z,1.50
2023-09-19T21:10:05.574Z,1.90
2023-09-19T21:12:34.598Z,1.85
2023-09-19T21:15:02.258Z,1.60
2023-09-19T21:17:29.454Z,2.00
2023-09-19T21:19:56.956Z,1.67
2023-09-19T21:22:23.697Z,1.90
2023-09-19T21:24:53.984Z,2.00
2023-09-19T21:27:21.214Z,2.10
2023-09-19T21:29:48.294Z,1.63
2023-09-19T21:32:15.150Z,1.50
2023-09-19T21:34:42.013Z,1.58
2023-09-19T21:37:09.351Z,1.50
2023-09-19T21:39:36.127Z,1.95
2023-09-19T21:42:04.836Z,1.67
2023-09-19T21:44:31.554Z,1.33
2023-09-19T21:46:59.358Z,1.45
2023-09-19T21:49:27.537Z,1.42
2023-09-19T21:51:54.210Z,1.48
2023-09-19T21:54:21.165Z,1.20
2023-09-19T21:56:49.673Z,1.50
2023-09-19T21:59:16.455Z,1.50
2023-09-19T22:01:44.291Z,1.38
2023-09-19T22:04:11.280Z,1.38
2023-09-19T22:06:39.449Z,1.70
2023-09-19T22:09:06.169Z,1.90
2023-09-19T22:11:32.920Z,1.40
2023-09-19T22:13:59.865Z,1.83
2023-09-19T22:16:26.793Z,1.58
2023-09-19T22:18:54.169Z,1.58
2023-09-19T22:21:28.606Z,1.40
2023-09-19T22:23:55.293Z,1.30
2023-09-19T22:26:26.045Z,1.88
2023-09-19T22:31:23.775Z,1.40
2023-09-19T22:33:52.207Z,2.00
2023-09-19T22:36:40.389Z,1.75
2023-09-19T22:39:26.900Z,1.60
2023-09-19T22:41:54.915Z,1.70
2023-09-19T22:44:27.250Z,1.60
2023-09-19T22:46:54.816Z,1.75
2023-09-19T22:49:21.822Z,1.50
2023-09-19T22:51:52.430Z,1.70
2023-09-19T22:54:26.844Z,1.75
2023-09-19T22:56:54.872Z,1.60
2023-09-19T22:59:22.365Z,1.60
2023-09-19T23:01:54.147Z,2.05
2023-09-19T23:04:22.621Z,2.10
2023-09-19T23:06:54.575Z,1.80
2023-09-19T23:09:23.119Z,1.30
2023-09-19T23:11:56.310Z,1.73
2023-09-19T23:14:42.952Z,1.50
2023-09-19T23:17:22.141Z,1.55
2023-09-19T23:19:56.680Z,1.60
2023-09-19T23:22:29.649Z,1.60
2023-09-19T23:25:10.715Z,1.52
2023-09-19T23:27:37.590Z,1.75
2023-09-19T23:30:17.315Z,1.75
2023-09-19T23:32:44.663Z,1.75
2023-09-19T23:35:14.614Z,1.73
2023-09-19T23:37:41.601Z,1.73
2023-09-19T23:40:11.118Z,1.75
2023-09-19T23:42:41.419Z,1.80
2023-09-19T23:45:10.367Z,1.65
2023-09-19T23:47:37.398Z,1.60
2023-09-19T23:50:04.643Z,1.80
2023-09-19T23:52:31.511Z,1.70
2023-09-19T23:55:00.986Z,1.63
2023-09-19T23:57:28.876Z,2.00
2023-09-19T23:59:55.567Z,1.90
